createdAt,value
2023-04-16T00:01:37.390Z,16.73
2023-04-16T00:04:06.792Z,16.42
2023-04-16T00:06:33.437Z,17.38
2023-04-16T00:08:59.983Z,16.73
2023-04-16T00:11:26.483Z,17.55
2023-04-16T00:13:52.934Z,18.05
2023-04-16T00:16:19.493Z,16.48
2023-04-16T00:18:46.495Z,17.88
2023-04-16T00:21:13.002Z,18.67
2023-04-16T00:23:39.468Z,19.38
2023-04-16T00:26:05.976Z,19.00
2023-04-16T00:28:32.429Z,19.42
2023-04-16T00:30:59.450Z,20.13
2023-04-16T00:33:26.150Z,20.15
2023-04-16T00:35:52.754Z,22.67
2023-04-16T00:38:19.265Z,22.13
2023-04-16T00:40:45.838Z,22.00
2023-04-16T00:43:12.370Z,19.58
2023-04-16T00:45:38.908Z,20.85
2023-04-16T00:48:05.933Z,20.77
2023-04-16T00:50:33.234Z,23.02
2023-04-16T00:52:59.708Z,21.50
2023-04-16T00:55:26.139Z,24.67
2023-04-16T00:57:53.170Z,23.63
2023-04-16T01:00:20.361Z,23.08
2023-04-16T01:02:47.024Z,22.52
2023-04-16T01:05:13.587Z,23.08
2023-04-16T01:07:40.121Z,22.55
2023-04-16T01:10:07.188Z,22.52
2023-04-16T01:12:33.725Z,21.52
2023-04-16T01:15:00.656Z,21.40
2023-04-16T01:17:27.160Z,23.33
2023-04-16T01:19:53.727Z,21.88
2023-04-16T01:22:20.348Z,23.90
2023-04-16T01:24:46.819Z,21.58
2023-04-16T01:27:13.323Z,22.83
2023-04-16T01:29:39.819Z,22.58
2023-04-16T01:32:07.146Z,21.60
2023-04-16T01:34:36.270Z,24.35
2023-04-16T01:37:03.903Z,23.05
2023-04-16T01:39:30.419Z,20.42
2023-04-16T01:41:57.674Z,20.42
2023-04-16T01:44:25.430Z,21.38
2023-04-16T01:46:51.977Z,21.67
2023-04-16T01:49:18.526Z,21.42
2023-04-16T01:51:45.023Z,22.65
2023-04-16T01:54:11.546Z,24.67
2023-04-16T01:56:39.522Z,25.15
2023-04-16T01:59:06.158Z,24.88
2023-04-16T02:01:37.891Z,25.48
2023-04-16T02:04:05.283Z,24.52
2023-04-16T02:06:32.062Z,25.52
2023-04-16T02:08:58.513Z,24.50
2023-04-16T02:11:26.307Z,23.10
2023-04-16T02:13:53.126Z,25.27
2023-04-16T02:16:20.486Z,23.05
2023-04-16T02:18:52.896Z,23.75
2023-04-16T02:21:21.472Z,23.93
2023-04-16T02:23:51.494Z,23.13
2023-04-16T02:26:21.496Z,24.48
2023-04-16T02:28:49.187Z,23.90
2023-04-16T02:31:19.525Z,24.42
2023-04-16T02:33:47.808Z,24.60
2023-04-16T02:36:14.832Z,23.73
2023-04-16T02:38:41.492Z,21.35
2023-04-16T02:41:08.483Z,25.10
2023-04-16T02:43:34.969Z,24.17
2023-04-16T02:46:02.277Z,23.60
2023-04-16T02:48:28.852Z,22.52
2023-04-16T02:50:55.670Z,24.38
2023-04-16T02:53:22.186Z,22.08
2023-04-16T02:55:52.859Z,23.13
2023-04-16T02:58:20.343Z,21.75
2023-04-16T03:00:46.993Z,22.33
2023-04-16T03:03:13.952Z,22.58
2023-04-16T03:05:40.813Z,20.70
2023-04-16T03:08:07.738Z,23.63
2023-04-16T03:10:35.387Z,23.73
2023-04-16T03:13:02.138Z,23.25
2023-04-16T03:15:28.941Z,23.73
2023-04-16T03:17:55.692Z,21.85
2023-04-16T03:20:22.246Z,21.88
2023-04-16T03:22:49.605Z,20.90
2023-04-16T03:25:16.425Z,22.92
2023-04-16T03:27:42.965Z,23.20
2023-04-16T03:30:11.442Z,24.33
2023-04-16T03:32:38.403Z,24.63
2023-04-16T03:35:06.092Z,24.95
2023-04-16T03:37:33.387Z,23.45
2023-04-16T03:40:00.047Z,22.02
2023-04-16T03:42:27.019Z,24.15
2023-04-16T03:44:53.761Z,22.63
2023-04-16T03:47:21.683Z,23.58
2023-04-16T03:49:49.552Z,26.38
2023-04-16T03:52:16.382Z,25.98
2023-04-16T03:54:42.872Z,25.85
2023-04-16T03:57:24.220Z,24.40
2023-04-16T03:59:52.455Z,25.65
2023-04-16T04:02:19.632Z,25.00
2023-04-16T04:04:46.440Z,27.85
2023-04-16T04:07:13.017Z,24.63
2023-04-16T04:09:39.596Z,24.10
2023-04-16T04:12:06.185Z,24.63
2023-04-16T04:14:33.514Z,23.85
2023-04-16T04:17:00.025Z,25.20
2023-04-16T04:19:26.497Z,25.13
2023-04-16T04:21:52.982Z,26.05
2023-04-16T04:24:19.539Z,24.83
2023-04-16T04:26:46.115Z,23.98
2023-04-16T04:29:13.940Z,25.15
2023-04-16T04:31:40.887Z,22.33
2023-04-16T04:34:07.728Z,24.40
2023-04-16T04:36:34.447Z,23.67
2023-04-16T04:39:01.431Z,23.67
2023-04-16T04:41:28.126Z,23.52
2023-04-16T04:43:54.550Z,21.50
2023-04-16T04:46:21.292Z,21.33
2023-04-16T04:48:47.912Z,24.83
2023-04-16T04:51:36.472Z,22.67
2023-04-16T04:54:03.445Z,22.92
2023-04-16T04:56:30.004Z,21.33
2023-04-16T04:58:56.664Z,21.35
2023-04-16T05:01:23.586Z,21.83
2023-04-16T05:03:50.372Z,20.08
2023-04-16T05:06:17.014Z,20.42
2023-04-16T05:08:43.500Z,20.77
2023-04-16T05:11:09.966Z,22.83
2023-04-16T05:13:36.467Z,21.15
2023-04-16T05:16:03.036Z,20.55
2023-04-16T05:18:29.645Z,20.63
2023-04-16T05:20:56.101Z,19.92
2023-04-16T05:23:22.514Z,22.02
2023-04-16T05:25:49.004Z,20.13
2023-04-16T05:28:15.510Z,18.60
2023-04-16T05:30:42.036Z,19.83
2023-04-16T05:33:08.584Z,17.42
2023-04-16T05:35:35.271Z,18.77
2023-04-16T05:38:01.751Z,17.25
2023-04-16T05:40:28.711Z,17.52
2023-04-16T05:42:55.173Z,18.42
2023-04-16T05:45:21.737Z,17.08
2023-04-16T05:47:48.183Z,16.08
2023-04-16T05:50:14.892Z,14.65
2023-04-16T05:52:41.356Z,17.65
2023-04-16T05:55:08.102Z,16.95
2023-04-16T05:57:34.559Z,16.80
2023-04-16T06:00:01.069Z,16.52
2023-04-16T06:02:27.797Z,16.48
2023-04-16T06:04:54.382Z,16.80
2023-04-16T06:07:20.971Z,13.93
2023-04-16T06:09:47.476Z,14.32
2023-04-16T06:12:13.990Z,15.23
2023-04-16T06:14:40.616Z,16.17
2023-04-16T06:17:07.060Z,14.85
2023-04-16T06:19:33.523Z,14.48
2023-04-16T06:21:59.999Z,15.07
2023-04-16T06:24:26.555Z,14.80
2023-04-16T06:26:54.258Z,14.95
2023-04-16T06:29:22.536Z,16.38
2023-04-16T06:31:52.344Z,15.07
2023-04-16T06:34:18.889Z,16.15
2023-04-16T06:36:45.704Z,14.93
2023-04-16T06:39:12.294Z,14.23
2023-04-16T06:41:38.854Z,16.33
2023-04-16T06:44:05.495Z,16.15
2023-04-16T06:46:32.204Z,15.63
2023-04-16T06:48:58.734Z,15.65
2023-04-16T06:51:26.667Z,18.48
2023-04-16T06:53:53.160Z,16.05
2023-04-16T06:56:19.717Z,16.05
2023-04-16T06:58:46.220Z,17.20
2023-04-16T07:01:12.985Z,18.25
2023-04-16T07:03:39.779Z,17.95
2023-04-16T07:06:06.929Z,17.52
2023-04-16T07:08:33.415Z,20.08
2023-04-16T07:10:59.930Z,17.40
2023-04-16T07:13:26.593Z,19.42
2023-04-16T07:15:53.386Z,17.42
2023-04-16T07:18:20.841Z,17.30
2023-04-16T07:20:48.001Z,17.35
2023-04-16T07:23:14.469Z,16.40
2023-04-16T07:25:42.475Z,16.90
2023-04-16T07:28:11.884Z,17.92
2023-04-16T07:30:38.425Z,17.33
2023-04-16T07:33:05.205Z,17.35
2023-04-16T07:35:31.961Z,20.48
2023-04-16T07:38:01.347Z,23.70
2023-04-16T07:40:27.815Z,18.30
2023-04-16T07:42:55.169Z,18.42
2023-04-16T07:45:21.920Z,15.60
2023-04-16T07:47:51.235Z,17.85
2023-04-16T07:50:19.439Z,17.20
2023-04-16T07:52:47.187Z,18.75
2023-04-16T07:55:13.684Z,18.38
2023-04-16T07:57:40.986Z,17.80
2023-04-16T08:00:08.563Z,20.48
2023-04-16T08:02:44.498Z,20.40
2023-04-16T08:05:12.502Z,19.60
2023-04-16T08:07:39.159Z,18.50
2023-04-16T08:10:09.056Z,17.95
2023-04-16T08:12:35.910Z,18.52
2023-04-16T08:15:02.458Z,18.48
2023-04-16T08:17:29.906Z,20.65
2023-04-16T08:19:56.446Z,19.13
2023-04-16T08:22:23.047Z,16.85
2023-04-16T08:24:49.527Z,18.63
2023-04-16T08:27:19.975Z,18.13
2023-04-16T08:29:49.939Z,18.35
2023-04-16T08:32:19.333Z,19.17
2023-04-16T08:34:46.236Z,16.90
2023-04-16T08:37:15.517Z,17.35
2023-04-16T08:39:42.073Z,16.75
2023-04-16T08:42:30.740Z,18.52
2023-04-16T08:45:17.693Z,17.13
2023-04-16T08:47:53.660Z,18.45
2023-04-16T08:50:24.827Z,19.90
2023-04-16T08:52:53.375Z,19.83
2023-04-16T08:55:25.501Z,17.73
2023-04-16T08:57:54.707Z,17.80
2023-04-16T09:00:21.519Z,17.88
2023-04-16T09:02:48.591Z,17.23
2023-04-16T09:05:20.687Z,18.25
2023-04-16T09:07:48.327Z,15.45
2023-04-16T09:10:15.254Z,16.45
2023-04-16T09:12:43.706Z,16.50
2023-04-16T09:15:11.562Z,19.05
2023-04-16T09:17:38.677Z,17.17
2023-04-16T09:20:08.672Z,15.73
2023-04-16T09:22:36.017Z,16.30
2023-04-16T09:25:02.595Z,17.58
2023-04-16T09:27:30.205Z,17.73
2023-04-16T09:29:56.727Z,16.00
2023-04-16T09:32:27.793Z,17.80
2023-04-16T09:34:55.598Z,16.67
2023-04-16T09:37:22.091Z,14.23
2023-04-16T09:39:59.253Z,13.07
2023-04-16T09:42:28.640Z,15.48
2023-04-16T09:44:57.863Z,13.73
2023-04-16T09:47:27.279Z,15.48
2023-04-16T09:49:58.790Z,16.88
2023-04-16T09:52:25.822Z,17.35
2023-04-16T09:54:53.370Z,17.38
2023-04-16T09:57:24.567Z,14.35
2023-04-16T09:59:57.730Z,14.95
2023-04-16T10:02:31.066Z,15.52
2023-04-16T10:04:57.964Z,14.60
2023-04-16T10:07:28.954Z,15.40
2023-04-16T10:09:56.020Z,17.92
2023-04-16T10:12:22.508Z,18.00
2023-04-16T10:14:50.438Z,19.10
2023-04-16T10:17:17.267Z,17.92
2023-04-16T10:19:43.849Z,18.63
2023-04-16T10:22:11.165Z,20.23
2023-04-16T10:24:38.304Z,18.25
2023-04-16T10:27:04.784Z,19.48
2023-04-16T10:29:31.644Z,19.17
2023-04-16T10:31:58.570Z,17.77
2023-04-16T10:34:25.784Z,21.00
2023-04-16T10:36:54.032Z,18.05
2023-04-16T10:39:22.672Z,17.35
2023-04-16T10:41:50.499Z,21.83
2023-04-16T10:44:20.397Z,18.38
2023-04-16T10:46:51.625Z,19.77
2023-04-16T10:49:25.297Z,19.92
2023-04-16T10:52:00.084Z,17.50
2023-04-16T10:54:31.169Z,20.33
2023-04-16T10:57:00.751Z,19.60
2023-04-16T10:59:31.299Z,18.17
2023-04-16T11:01:59.974Z,18.00
2023-04-16T11:04:28.928Z,18.77
2023-04-16T11:07:17.012Z,21.92
2023-04-16T11:09:56.323Z,18.90
2023-04-16T11:12:29.132Z,17.67
2023-04-16T11:15:08.547Z,19.75
2023-04-16T11:17:45.617Z,17.80
2023-04-16T11:20:19.080Z,18.25
2023-04-16T11:22:47.996Z,19.13
2023-04-16T11:25:23.082Z,16.83
2023-04-16T11:27:50.641Z,17.20
2023-04-16T11:30:20.647Z,17.58
2023-04-16T11:32:47.290Z,19.40
2023-04-16T11:35:16.264Z,15.55
2023-04-16T11:37:43.017Z,15.70
2023-04-16T11:40:10.240Z,17.50
2023-04-16T11:42:37.535Z,15.98
2023-04-16T11:45:04.952Z,18.77
2023-04-16T11:47:31.972Z,17.58
2023-04-16T11:49:58.895Z,16.45
2023-04-16T11:52:33.211Z,18.75
2023-04-16T11:54:59.850Z,21.85
2023-04-16T11:57:30.655Z,18.15
2023-04-16T12:00:01.616Z,17.85
2023-04-16T12:02:43.065Z,19.17
2023-04-16T12:05:31.946Z,22.52
2023-04-16T12:07:59.515Z,21.95
2023-04-16T12:10:27.092Z,18.40
2023-04-16T12:12:53.746Z,19.63
2023-04-16T12:15:20.308Z,22.35
2023-04-16T12:17:47.836Z,20.10
2023-04-16T12:20:15.677Z,23.55
2023-04-16T12:22:47.581Z,22.73
2023-04-16T12:25:16.003Z,23.73
2023-04-16T12:27:43.163Z,22.00
2023-04-16T12:30:10.046Z,22.85
2023-04-16T12:32:36.704Z,23.10
2023-04-16T12:35:03.437Z,21.08
2023-04-16T12:37:30.007Z,22.88
2023-04-16T12:39:56.614Z,26.45
2023-04-16T12:42:23.151Z,25.38
2023-04-16T12:44:49.855Z,29.02
2023-04-16T12:47:16.489Z,28.15
2023-04-16T12:49:44.480Z,25.17
2023-04-16T12:52:11.120Z,26.73
2023-04-16T12:54:37.744Z,27.45
2023-04-16T12:57:04.344Z,29.92
2023-04-16T12:59:30.858Z,24.45
2023-04-16T13:01:57.575Z,27.23
2023-04-16T13:04:25.678Z,26.58
2023-04-16T13:06:52.700Z,24.10
2023-04-16T13:09:20.211Z,28.25
2023-04-16T13:11:46.892Z,25.45
2023-04-16T13:14:13.419Z,25.52
2023-04-16T13:16:39.933Z,25.20
2023-04-16T13:19:06.593Z,35.85
2023-04-16T13:21:34.212Z,59.55
2023-04-16T13:24:00.712Z,34.45
2023-04-16T13:26:27.393Z,26.65
2023-04-16T13:28:54.809Z,24.50
2023-04-16T13:31:22.347Z,26.60
2023-04-16T13:33:50.280Z,25.38
2023-04-16T13:36:16.932Z,26.45
2023-04-16T13:38:43.817Z,27.00
2023-04-16T13:41:10.462Z,24.98
2023-04-16T13:43:37.262Z,23.20
2023-04-16T13:46:03.917Z,25.50
2023-04-16T13:48:30.779Z,27.73
2023-04-16T13:50:57.320Z,27.27
2023-04-16T13:53:23.946Z,37.15
2023-04-16T13:55:51.037Z,31.58
2023-04-16T13:58:20.897Z,27.38
2023-04-16T14:00:49.397Z,26.20
2023-04-16T14:03:18.403Z,25.50
2023-04-16T14:05:45.676Z,28.08
2023-04-16T14:08:16.492Z,28.67
2023-04-16T14:10:43.749Z,26.40
2023-04-16T14:13:11.096Z,28.25
2023-04-16T14:15:38.086Z,28.95
2023-04-16T14:18:05.060Z,29.05
2023-04-16T14:20:31.735Z,29.30
2023-04-16T14:22:58.659Z,30.48
2023-04-16T14:25:26.699Z,27.55
2023-04-16T14:27:53.436Z,31.58
2023-04-16T14:30:20.145Z,27.88
2023-04-16T14:32:46.778Z,29.60
2023-04-16T14:35:13.328Z,28.40
2023-04-16T14:37:40.280Z,29.35
2023-04-16T14:40:08.934Z,37.00
2023-04-16T14:42:36.647Z,38.30
2023-04-16T14:45:06.524Z,36.92
2023-04-16T14:47:37.791Z,31.30
2023-04-16T14:50:25.277Z,29.90
2023-04-16T14:52:53.730Z,26.52
2023-04-16T14:55:21.357Z,27.50
2023-04-16T14:57:48.013Z,28.25
2023-04-16T15:00:18.687Z,30.17
2023-04-16T15:02:46.201Z,30.58
2023-04-16T15:05:13.041Z,30.02
2023-04-16T15:07:39.734Z,31.30
2023-04-16T15:10:10.802Z,31.58
2023-04-16T15:12:38.063Z,31.98
2023-04-16T15:15:08.105Z,31.08
2023-04-16T15:17:34.798Z,30.98
2023-04-16T15:20:10.575Z,27.67
2023-04-16T15:22:37.337Z,32.30
2023-04-16T15:25:05.338Z,29.90
2023-04-16T15:27:32.012Z,32.78
2023-04-16T15:29:58.590Z,30.25
2023-04-16T15:32:25.402Z,30.25
2023-04-16T15:34:52.100Z,31.40
2023-04-16T15:37:18.648Z,32.58
2023-04-16T15:39:45.350Z,34.97
2023-04-16T15:42:11.992Z,34.05
2023-04-16T15:44:38.652Z,31.55
2023-04-16T15:47:06.471Z,34.10
2023-04-16T15:49:33.101Z,31.38
2023-04-16T15:52:00.394Z,34.05
2023-04-16T15:54:27.236Z,33.30
2023-04-16T15:56:53.879Z,34.22
2023-04-16T15:59:20.625Z,35.55
2023-04-16T16:01:47.183Z,36.90
2023-04-16T16:04:13.940Z,32.50
2023-04-16T16:06:41.049Z,34.80
2023-04-16T16:09:08.119Z,32.28
2023-04-16T16:11:38.422Z,37.05
2023-04-16T16:14:05.162Z,38.42
2023-04-16T16:16:32.800Z,39.17
2023-04-16T16:18:59.534Z,37.22
2023-04-16T16:21:30.380Z,37.33
2023-04-16T16:23:57.905Z,31.45
2023-04-16T16:26:24.611Z,35.47
2023-04-16T16:28:51.206Z,45.45
2023-04-16T16:31:17.897Z,34.80
2023-04-16T16:33:44.544Z,34.75
2023-04-16T16:36:11.722Z,35.50
2023-04-16T16:38:40.021Z,33.22
2023-04-16T16:41:07.393Z,36.15
2023-04-16T16:43:35.885Z,32.15
2023-04-16T16:46:02.523Z,34.42
2023-04-16T16:48:29.200Z,35.42
2023-04-16T16:50:56.072Z,32.45
2023-04-16T16:53:22.706Z,31.20
2023-04-16T16:55:49.315Z,31.88
2023-04-16T16:58:16.300Z,33.38
2023-04-16T17:00:43.715Z,30.92
2023-04-16T17:03:16.481Z,32.40
2023-04-16T17:05:43.159Z,31.38
2023-04-16T17:08:27.478Z,31.60
2023-04-16T17:11:13.688Z,30.50
2023-04-16T17:13:56.444Z,30.25
2023-04-16T17:16:28.178Z,32.67
2023-04-16T17:18:55.864Z,32.67
2023-04-16T17:21:22.513Z,37.45
2023-04-16T17:23:49.237Z,35.22
2023-04-16T17:26:19.129Z,36.67
2023-04-16T17:28:45.866Z,33.67
2023-04-16T17:31:12.828Z,35.65
2023-04-16T17:33:39.524Z,35.50
2023-04-16T17:36:07.448Z,33.20
2023-04-16T17:38:34.662Z,30.60
2023-04-16T17:41:01.668Z,30.58
2023-04-16T17:43:28.600Z,32.45
2023-04-16T17:45:55.665Z,31.92
2023-04-16T17:48:22.396Z,29.48
2023-04-16T17:50:49.870Z,35.40
2023-04-16T17:53:16.691Z,35.05
2023-04-16T17:55:55.974Z,36.25
2023-04-16T17:58:26.772Z,38.65
2023-04-16T18:00:53.529Z,36.83
2023-04-16T18:03:22.074Z,37.03
2023-04-16T18:05:49.519Z,35.33
2023-04-16T18:08:16.277Z,34.25
2023-04-16T18:10:43.464Z,31.83
2023-04-16T18:13:10.238Z,38.58
2023-04-16T18:15:41.566Z,40.17
2023-04-16T18:18:11.152Z,43.88
2023-04-16T18:20:37.827Z,45.13
2023-04-16T18:23:04.627Z,44.92
2023-04-16T18:25:34.942Z,50.25
2023-04-16T18:28:03.696Z,48.78
2023-04-16T18:30:30.672Z,48.80
2023-04-16T18:33:19.473Z,46.70
2023-04-16T18:35:44.205Z,55.70
2023-04-16T18:38:13.936Z,49.42
2023-04-16T18:40:41.645Z,46.80
2023-04-16T18:43:14.147Z,46.83
2023-04-16T18:45:51.288Z,43.92
2023-04-16T18:51:57.392Z,121.35
2023-04-16T18:54:25.438Z,66.30
2023-04-16T18:59:21.496Z,106.55
2023-04-16T19:01:48.292Z,70.38
2023-04-16T19:04:15.246Z,76.30
2023-04-16T19:06:43.352Z,64.43
2023-04-16T19:09:11.557Z,53.55
2023-04-16T19:11:38.546Z,38.28
2023-04-16T19:14:05.832Z,41.67
2023-04-16T19:16:32.535Z,51.13
2023-04-16T19:18:59.539Z,56.38
2023-04-16T19:21:26.148Z,52.00
2023-04-16T19:23:52.862Z,48.03
2023-04-16T19:26:19.540Z,44.08
2023-04-16T19:28:46.231Z,43.67
2023-04-16T19:31:13.010Z,39.20
2023-04-16T19:33:44.986Z,39.22
2023-04-16T19:36:11.684Z,36.65
2023-04-16T19:38:38.552Z,36.95
2023-04-16T19:41:07.078Z,48.22
2023-04-16T19:43:33.655Z,53.00
2023-04-16T19:46:00.389Z,104.30
2023-04-16T19:48:27.137Z,82.10
2023-04-16T19:50:53.796Z,96.30
2023-04-16T19:53:21.436Z,95.38
2023-04-16T19:55:50.779Z,69.03
2023-04-16T19:58:17.446Z,95.75
2023-04-16T20:00:44.140Z,99.85
2023-04-16T20:03:14.121Z,167.70
2023-04-16T20:05:40.885Z,147.10
2023-04-16T20:08:07.553Z,163.95
2023-04-16T20:10:34.431Z,66.57
2023-04-16T20:13:03.779Z,44.75
2023-04-16T20:15:30.648Z,42.22
2023-04-16T20:17:57.407Z,50.75
2023-04-16T20:20:24.079Z,50.53
2023-04-16T20:22:50.862Z,44.67
2023-04-16T20:25:19.278Z,38.97
2023-04-16T20:27:46.231Z,37.92
2023-04-16T20:30:38.727Z,37.90
2023-04-16T20:33:06.810Z,34.53
2023-04-16T20:35:34.158Z,33.28
2023-04-16T20:38:01.101Z,35.47
2023-04-16T20:40:30.642Z,33.90
2023-04-16T20:45:38.304Z,33.40
2023-04-16T20:48:05.437Z,34.10
2023-04-16T20:50:32.065Z,32.10
2023-04-16T20:52:58.741Z,31.80
2023-04-16T20:55:28.521Z,32.00
2023-04-16T20:57:55.181Z,32.00
2023-04-16T21:00:22.342Z,30.33
2023-04-16T21:02:48.979Z,30.55
2023-04-16T21:05:16.276Z,32.13
2023-04-16T21:07:43.137Z,33.42
2023-04-16T21:10:10.685Z,29.63
2023-04-16T21:12:37.321Z,33.20
2023-04-16T21:15:04.758Z,30.17
2023-04-16T21:17:31.746Z,31.52
2023-04-16T21:19:58.485Z,33.92
2023-04-16T21:22:25.114Z,32.78
2023-04-16T21:24:51.572Z,31.55
2023-04-16T21:27:18.110Z,32.25
2023-04-16T21:29:44.666Z,34.03
2023-04-16T21:32:11.258Z,30.95
2023-04-16T21:34:37.726Z,32.75
2023-04-16T21:37:04.305Z,33.88
2023-04-16T21:39:31.140Z,35.10
2023-04-16T21:41:58.018Z,36.53
2023-04-16T21:44:24.531Z,34.90
2023-04-16T21:46:51.181Z,36.25
2023-04-16T21:49:17.824Z,32.08
2023-04-16T21:51:46.074Z,35.33
2023-04-16T21:54:13.071Z,31.67
2023-04-16T21:56:39.544Z,33.55
2023-04-16T21:59:06.356Z,31.45
2023-04-16T22:01:33.134Z,31.58
2023-04-16T22:03:59.944Z,28.08
2023-04-16T22:06:27.123Z,35.20
2023-04-16T22:08:53.720Z,30.42
2023-04-16T22:11:20.704Z,31.00
2023-04-16T22:13:47.531Z,26.52
2023-04-16T22:16:14.332Z,25.15
2023-04-16T22:18:41.221Z,25.58
2023-04-16T22:21:07.809Z,28.27
2023-04-16T22:23:34.387Z,24.13
2023-04-16T22:26:02.490Z,26.30
2023-04-16T22:28:28.934Z,24.98
2023-04-16T22:30:56.401Z,24.52
2023-04-16T22:33:22.886Z,21.75
2023-04-16T22:35:49.338Z,25.23
2023-04-16T22:38:16.498Z,22.60
2023-04-16T22:40:43.024Z,23.33
2023-04-16T22:43:09.546Z,26.10
2023-04-16T22:45:37.396Z,21.48
2023-04-16T22:48:04.332Z,23.60
2023-04-16T22:50:31.930Z,23.00
2023-04-16T22:52:58.473Z,23.13
2023-04-16T22:55:25.005Z,22.98
2023-04-16T22:57:51.452Z,23.17
2023-04-16T23:00:18.306Z,21.63
2023-04-16T23:02:45.244Z,24.35
2023-04-16T23:05:12.119Z,23.40
2023-04-16T23:07:38.873Z,22.83
2023-04-16T23:10:06.136Z,24.80
2023-04-16T23:12:32.669Z,23.15
2023-04-16T23:15:00.520Z,23.33
2023-04-16T23:17:27.267Z,25.23
2023-04-16T23:19:53.906Z,21.30
2023-04-16T23:22:20.384Z,21.77
2023-04-16T23:24:46.923Z,21.27
2023-04-16T23:27:13.382Z,20.45
2023-04-16T23:29:39.851Z,21.35
2023-04-16T23:32:06.386Z,22.38
2023-04-16T23:34:32.871Z,24.33
2023-04-16T23:36:59.322Z,22.65
2023-04-16T23:39:26.098Z,20.48
2023-04-16T23:41:52.615Z,21.50
2023-04-16T23:44:19.156Z,21.42
2023-04-16T23:46:45.783Z,21.60
2023-04-16T23:49:12.400Z,19.92
2023-04-16T23:51:38.986Z,20.40
2023-04-16T23:54:05.564Z,20.70
2023-04-16T23:56:32.048Z,21.77
2023-04-16T23:58:58.613Z,22.48
